LDRI/RJK METAR and TAF weather

Enter ICAO airport designator
Station Type Date Time Source
LDRI METAR 2020/04/07 16:30 UTC NOAA

LDRI 071630Z 10004KT 020V170 CAVOK 21/M07 Q1027


Station Type Date Time Source
LDRI Decoded METAR 2020/04/07 16:30 UTC NOAA

Rijeka / Omisalj, Croatia (LDRI) 45-13N 014-35E
Apr 07, 2020 - 12:30 PM EDT / 2020.04.07 1630 UTC
Wind: from the E (100 degrees) at 5 MPH (4 KT) (direction variable):0
Visibility: greater than 7 mile(s):0
Temperature: 69 F (21 C)
Dew Point: 19 F (-7 C)
Relative Humidity: 14%
Pressure (altimeter): 30.33 in. Hg (1027 hPa)
ob: LDRI 071630Z 10004KT 020V170 CAVOK 21/M07 Q1027
cycle: 16

Station Type Date Time Source
LDRI TAF 2020/04/07 12:27 UTC NOAA

TAF LDRI 071125Z 0712/0812 08010KT CAVOK TX22/0713Z TN11/0805Z PROB40
TEMPO 0712/0812 VRB08KT

Example: see airport list